LEBB/BIO METAR and TAF weather

Enter ICAO airport designator
Station Type Date Time Source
LEBB METAR 2021/01/27 12:30 UTC NOAA

LEBB 271230Z VRB02KT 6000 SCT005 BKN020 15/15 Q1025 TEMPO 3000 -RA


Station Type Date Time Source
LEBB Decoded METAR 2021/01/27 12:30 UTC NOAA

Bilbao / Sondica, Spain (LEBB) 43-18N 002-56W 37M
Jan 27, 2021 - 07:30 AM EST / 2021.01.27 1230 UTC
Wind: Variable at 2 MPH (2 KT):0
Visibility: 3 mile(s):0
Sky conditions: mostly cloudy
Temperature: 59 F (15 C)
Dew Point: 59 F (15 C)
Relative Humidity: 100%
Pressure (altimeter): 30.27 in. Hg (1025 hPa)
ob: LEBB 271230Z VRB02KT 6000 SCT005 BKN020 15/15 Q1025 TEMPO 3000 -RA
cycle: 12

Station Type Date Time Source
LEBB TAF 2021/01/27 12:33 UTC NOAA

TAF
AMD TAF
AMD LEBB 271128Z 2712/2812 28006KT 9999 SCT014 BKN020 TX16/2715Z TN11/2806Z
TEMPO 2712/2715 3000 DZ BR BKN010 PROB30
TEMPO 2712/2714 1500 -RADZ BKN005 PROB40
TEMPO 2714/2719 BKN014 PROB30
TEMPO 2719/2723 4000 BR BKN010

Example: see airport list